Time;durP1;ratioP1;P1;durP2;ratioP2;P2;SDS_P1;SDS_P2;PMS_P1;PMS_P2;Temp;Humidity;BMP_temperature;BMP_pressure;BME280_temperature;BME280_humidity;BME280_pressure;Samples;Min_cycle;Max_cycle;Signal;HPM_P1;HPM_P2
2022/07/22 00:01:15;;;;;;;4.60;1.52;;;18.20;82.90;;;;;;5043501;28;20446;-68
2022/07/22 00:03:41;;;;;;;4.05;1.90;;;18.20;82.80;;;;;;5047462;28;20383;-67
2022/07/22 00:06:07;;;;;;;4.40;2.03;;;18.20;82.70;;;;;;5049871;28;20034;-68
2022/07/22 00:08:32;;;;;;;1.98;1.52;;;18.20;82.70;;;;;;5043791;28;20515;-68
2022/07/22 00:10:58;;;;;;;2.40;1.52;;;18.20;82.60;;;;;;5049399;28;20025;-68
2022/07/22 00:13:24;;;;;;;3.20;1.55;;;18.20;82.60;;;;;;5046775;28;20413;-68
2022/07/22 00:15:49;;;;;;;2.67;1.42;;;18.20;82.50;;;;;;5050347;28;20384;-69
2022/07/22 00:18:15;;;;;;;3.08;1.33;;;18.20;82.60;;;;;;5048937;28;20425;-69
2022/07/22 00:20:41;;;;;;;2.22;1.48;;;18.20;82.60;;;;;;5050002;28;20033;-69
2022/07/22 00:23:07;;;;;;;2.53;1.40;;;18.30;82.60;;;;;;5045740;28;20051;-69
2022/07/22 00:25:33;;;;;;;3.13;1.40;;;18.30;82.40;;;;;;5049243;28;20029;-69
2022/07/22 00:27:58;;;;;;;1.98;1.50;;;18.30;82.30;;;;;;5049712;28;20522;-68
2022/07/22 00:30:24;;;;;;;3.45;1.50;;;18.30;82.20;;;;;;5050026;28;20063;-68
2022/07/22 00:32:50;;;;;;;3.90;1.92;;;18.30;82.20;;;;;;5047919;28;20025;-67
2022/07/22 00:35:15;;;;;;;4.13;1.58;;;18.30;82.10;;;;;;5049678;28;20036;-68
2022/07/22 00:37:41;;;;;;;2.72;1.50;;;18.30;82.20;;;;;;5046311;28;20021;-68
2022/07/22 00:40:07;;;;;;;2.85;1.50;;;18.30;82.20;;;;;;5049260;28;20025;-69
2022/07/22 00:42:34;;;;;;;4.03;1.63;;;18.30;82.20;;;;;;5048981;28;20021;-69
2022/07/22 00:44:59;;;;;;;3.03;1.45;;;18.30;82.20;;;;;;5048801;28;20025;-69
2022/07/22 00:47:25;;;;;;;4.97;1.80;;;18.30;82.20;;;;;;5044397;28;20021;-69
2022/07/22 00:49:50;;;;;;;4.05;1.40;;;18.30;82.10;;;;;;5048015;28;20017;-69
2022/07/22 00:52:17;;;;;;;4.13;1.65;;;18.30;82.00;;;;;;5044524;28;20097;-69
2022/07/22 00:54:43;;;;;;;2.50;1.52;;;18.30;81.90;;;;;;5038017;28;20025;-69
2022/07/22 00:57:09;;;;;;;4.22;1.42;;;18.40;81.90;;;;;;5036978;28;20017;-69
2022/07/22 00:59:34;;;;;;;2.03;1.52;;;18.40;81.70;;;;;;5049273;28;20063;-68
2022/07/22 01:02:00;;;;;;;1.65;1.23;;;18.40;81.50;;;;;;5048401;28;20374;-68
2022/07/22 01:04:26;;;;;;;4.85;1.52;;;18.50;81.30;;;;;;5045524;28;20048;-67
2022/07/22 01:06:51;;;;;;;5.13;1.73;;;18.50;81.20;;;;;;5047590;28;20066;-66
2022/07/22 01:09:17;;;;;;;3.40;1.50;;;18.50;81.10;;;;;;5040237;28;20036;-67
2022/07/22 01:11:42;;;;;;;3.20;1.63;;;18.50;81.10;;;;;;5044002;28;20036;-67
2022/07/22 01:14:08;;;;;;;3.45;1.80;;;18.50;81.20;;;;;;5046279;28;20040;-67
2022/07/22 01:16:34;;;;;;;2.45;1.40;;;18.60;81.20;;;;;;5049701;28;20025;-66
2022/07/22 01:19:00;;;;;;;3.03;1.60;;;18.60;81.00;;;;;;5044963;28;20391;-67
2022/07/22 01:21:26;;;;;;;4.32;1.75;;;18.60;81.00;;;;;;5049181;28;20025;-67
2022/07/22 01:23:51;;;;;;;4.03;1.48;;;18.60;80.90;;;;;;5043180;28;20484;-68
2022/07/22 01:26:17;;;;;;;2.90;1.40;;;18.60;80.70;;;;;;5046575;28;20025;-68
2022/07/22 01:28:43;;;;;;;4.07;1.67;;;18.60;80.60;;;;;;5048123;28;20107;-67
2022/07/22 01:31:09;;;;;;;3.15;1.70;;;18.60;80.50;;;;;;5044705;28;20083;-67
2022/07/22 01:33:35;;;;;;;3.00;1.42;;;18.60;80.50;;;;;;5045331;28;20503;-67
2022/07/22 01:36:01;;;;;;;2.63;1.38;;;18.60;80.60;;;;;;5037160;28;20026;-67
2022/07/22 01:38:27;;;;;;;2.35;1.50;;;18.50;80.60;;;;;;5044443;28;20013;-65
2022/07/22 01:40:53;;;;;;;3.13;1.50;;;18.50;80.60;;;;;;5049410;28;20017;-68
2022/07/22 01:43:20;;;;;;;2.70;1.42;;;18.50;80.70;;;;;;5041670;28;20048;-67
2022/07/22 01:45:47;;;;;;;3.13;1.55;;;18.50;80.70;;;;;;5048770;28;20028;-67
2022/07/22 01:48:14;;;;;;;3.38;1.60;;;18.50;80.60;;;;;;5044938;28;20445;-68
2022/07/22 01:50:41;;;;;;;3.40;1.58;;;18.50;80.60;;;;;;5043265;28;20029;-68
2022/07/22 01:53:06;;;;;;;5.72;1.70;;;18.50;80.70;;;;;;5049098;28;20029;-68
2022/07/22 01:55:32;;;;;;;2.97;1.65;;;18.50;80.60;;;;;;5050702;28;20075;-69
2022/07/22 01:57:57;;;;;;;3.55;1.63;;;18.50;80.60;;;;;;5051424;28;20104;-68
2022/07/22 02:00:23;;;;;;;2.58;1.70;;;18.50;80.60;;;;;;5051180;28;20092;-68
2022/07/22 02:02:48;;;;;;;4.22;1.63;;;18.50;80.60;;;;;;5052424;28;20108;-67
2022/07/22 02:05:14;;;;;;;5.55;1.77;;;18.40;80.60;;;;;;5051611;28;20028;-67
2022/07/22 02:07:40;;;;;;;4.25;1.70;;;18.40;80.60;;;;;;5050357;28;20035;-67
2022/07/22 02:10:06;;;;;;;3.78;2.05;;;18.40;80.60;;;;;;5052041;28;20369;-67
2022/07/22 02:12:31;;;;;;;4.03;1.85;;;18.40;80.70;;;;;;5050388;28;20029;-67
2022/07/22 02:14:57;;;;;;;2.72;1.55;;;18.40;80.60;;;;;;5044740;28;20101;-67
2022/07/22 02:17:23;;;;;;;3.22;1.65;;;18.40;80.40;;;;;;5048572;28;20512;-66
2022/07/22 02:19:48;;;;;;;4.30;1.67;;;18.40;80.40;;;;;;5048024;28;20075;-66
2022/07/22 02:22:14;;;;;;;5.32;1.92;;;18.40;80.30;;;;;;5050546;28;20375;-67
2022/07/22 02:24:39;;;;;;;2.97;1.60;;;18.40;80.40;;;;;;5049148;28;20033;-67
2022/07/22 02:27:05;;;;;;;2.67;1.48;;;18.40;80.40;;;;;;5046241;28;20369;-67
2022/07/22 02:29:32;;;;;;;4.68;1.65;;;18.40;80.50;;;;;;5051580;28;20051;-66
2022/07/22 02:31:58;;;;;;;3.78;1.50;;;18.40;80.70;;;;;;5043076;28;20028;-66
2022/07/22 02:34:23;;;;;;;4.25;1.90;;;18.30;80.40;;;;;;5049057;28;20483;-68
2022/07/22 02:36:49;;;;;;;3.47;1.70;;;18.30;80.50;;;;;;5050877;28;20357;-66
2022/07/22 02:39:14;;;;;;;3.65;1.80;;;18.30;80.60;;;;;;5050241;28;20028;-67
2022/07/22 02:41:40;;;;;;;4.78;1.85;;;18.20;80.50;;;;;;5050985;28;20032;-67
2022/07/22 02:44:05;;;;;;;4.72;1.73;;;18.20;80.60;;;;;;5051188;28;20048;-67
2022/07/22 02:46:31;;;;;;;2.40;1.50;;;18.20;80.60;;;;;;5050648;28;20560;-68
2022/07/22 02:48:57;;;;;;;3.70;1.80;;;18.10;80.60;;;;;;5051065;28;20442;-68
2022/07/22 02:51:23;;;;;;;3.63;1.80;;;18.20;80.70;;;;;;5050997;28;20025;-67
2022/07/22 02:53:49;;;;;;;2.78;1.60;;;18.10;80.60;;;;;;5050423;28;20491;-68
2022/07/22 02:56:15;;;;;;;3.03;1.73;;;18.10;80.60;;;;;;5045824;28;20634;-68
2022/07/22 02:58:42;;;;;;;2.42;1.88;;;18.10;80.60;;;;;;5057540;28;20024;-69
2022/07/22 03:01:08;;;;;;;2.13;1.50;;;18.10;80.70;;;;;;5050238;28;20024;-68
2022/07/22 03:03:34;;;;;;;4.75;1.80;;;18.10;80.60;;;;;;5048446;28;20039;-69
2022/07/22 03:05:59;;;;;;;2.97;1.50;;;18.10;80.60;;;;;;5049246;28;20025;-69
2022/07/22 03:08:25;;;;;;;3.50;1.90;;;18.10;80.60;;;;;;5050309;28;20021;-68
2022/07/22 03:10:52;;;;;;;2.53;1.60;;;18.10;80.60;;;;;;5049629;28;20033;-68
2022/07/22 03:13:17;;;;;;;3.35;1.60;;;18.10;80.70;;;;;;5050589;28;20376;-67
2022/07/22 03:15:43;;;;;;;3.45;1.48;;;18.20;80.60;;;;;;5047872;28;20028;-67
2022/07/22 03:18:09;;;;;;;4.15;1.95;;;18.20;80.60;;;;;;5045161;28;20027;-68
2022/07/22 03:20:34;;;;;;;5.13;2.10;;;18.20;80.50;;;;;;5049604;28;20446;-67
2022/07/22 03:23:01;;;;;;;4.70;1.85;;;18.20;80.40;;;;;;5050280;28;20065;-68
2022/07/22 03:25:26;;;;;;;3.00;1.60;;;18.20;80.30;;;;;;5050167;28;20533;-68
2022/07/22 03:27:52;;;;;;;3.42;1.92;;;18.20;80.40;;;;;;5045236;28;20029;-68
2022/07/22 03:30:18;;;;;;;2.92;1.77;;;18.10;80.30;;;;;;5038764;28;20029;-67
2022/07/22 03:32:46;;;;;;;2.30;1.70;;;18.10;80.40;;;;;;5044852;28;20030;-67
2022/07/22 03:35:13;;;;;;;3.22;1.77;;;18.10;80.50;;;;;;5038677;28;20039;-67
2022/07/22 03:37:39;;;;;;;3.40;1.75;;;18.20;80.50;;;;;;5045034;28;20021;-68
2022/07/22 03:40:05;;;;;;;2.45;1.50;;;18.20;80.30;;;;;;5046226;28;20025;-67
2022/07/22 03:42:30;;;;;;;4.20;2.00;;;18.20;80.30;;;;;;5048142;28;20044;-68
2022/07/22 03:44:56;;;;;;;3.65;1.73;;;18.20;80.40;;;;;;5048624;28;20032;-67
2022/07/22 03:47:22;;;;;;;2.63;1.50;;;18.20;80.50;;;;;;5040006;28;20037;-67
2022/07/22 03:49:48;;;;;;;3.03;1.73;;;18.10;80.60;;;;;;5041068;28;20020;-67
2022/07/22 03:52:14;;;;;;;3.10;1.58;;;18.10;80.70;;;;;;5049770;28;20025;-67
2022/07/22 03:54:41;;;;;;;2.83;1.52;;;18.10;80.70;;;;;;5050015;28;20545;-68
2022/07/22 03:57:06;;;;;;;4.30;1.90;;;18.10;80.70;;;;;;5049536;28;20036;-68
2022/07/22 03:59:32;;;;;;;3.67;2.33;;;18.00;80.70;;;;;;5049938;28;20422;-69
2022/07/22 04:01:58;;;;;;;2.85;1.63;;;18.00;80.80;;;;;;5046312;28;20033;-68
2022/07/22 04:04:23;;;;;;;4.75;1.88;;;18.00;81.50;;;;;;5045149;28;20028;-68
2022/07/22 04:06:51;;;;;;;2.53;1.80;;;18.00;81.00;;;;;;5048915;28;20107;-66
2022/07/22 04:09:17;;;;;;;3.88;1.90;;;18.00;81.00;;;;;;5050564;28;20032;-66
2022/07/22 04:11:42;;;;;;;3.75;2.05;;;18.00;80.90;;;;;;5049813;28;20024;-67
2022/07/22 04:14:08;;;;;;;3.80;1.77;;;18.00;80.80;;;;;;5048469;28;20017;-68
2022/07/22 04:16:34;;;;;;;3.05;2.00;;;18.10;80.80;;;;;;5046889;28;20472;-67
2022/07/22 04:19:00;;;;;;;4.68;1.80;;;18.10;80.70;;;;;;5050692;28;20016;-67
2022/07/22 04:21:26;;;;;;;3.17;2.25;;;18.00;80.60;;;;;;5044130;28;20021;-67
2022/07/22 04:23:52;;;;;;;4.43;1.92;;;18.00;80.90;;;;;;5045629;28;20039;-68
2022/07/22 04:26:18;;;;;;;3.97;1.85;;;17.90;80.90;;;;;;5042139;28;20369;-68
2022/07/22 04:28:44;;;;;;;3.45;1.73;;;17.90;80.80;;;;;;5049689;28;20033;-67
2022/07/22 04:31:09;;;;;;;3.20;1.80;;;17.90;80.90;;;;;;5049550;28;20096;-67
2022/07/22 04:33:35;;;;;;;3.72;1.80;;;17.80;80.90;;;;;;5050096;28;20032;-68
2022/07/22 04:36:00;;;;;;;3.97;1.90;;;17.80;80.90;;;;;;5049009;28;20372;-67
2022/07/22 04:38:26;;;;;;;3.70;1.80;;;17.80;80.90;;;;;;5049282;28;20028;-67
2022/07/22 04:40:52;;;;;;;3.42;1.75;;;17.80;80.90;;;;;;5042054;28;20033;-67
2022/07/22 04:43:17;;;;;;;2.88;1.40;;;17.70;80.80;;;;;;5050021;28;20029;-67
2022/07/22 04:45:43;;;;;;;2.42;1.40;;;17.80;80.90;;;;;;5043292;28;20087;-67
2022/07/22 04:48:08;;;;;;;3.05;1.70;;;17.80;80.80;;;;;;5049537;28;20586;-67
2022/07/22 04:50:36;;;;;;;3.95;1.63;;;17.70;80.70;;;;;;5047170;28;20379;-67
2022/07/22 04:53:02;;;;;;;2.40;1.50;;;17.70;80.60;;;;;;5041757;28;20082;-67
2022/07/22 04:55:27;;;;;;;2.60;1.30;;;17.70;80.70;;;;;;5042580;28;20033;-68
2022/07/22 04:57:53;;;;;;;2.15;1.20;;;17.70;80.90;;;;;;5045955;28;20104;-68
2022/07/22 05:00:19;;;;;;;2.30;1.10;;;17.60;80.80;;;;;;5047182;28;20027;-69
2022/07/22 05:02:44;;;;;;;2.70;1.45;;;17.70;80.80;;;;;;5043003;28;20029;-68
2022/07/22 05:05:10;;;;;;;3.25;1.50;;;17.70;80.80;;;;;;5044935;28;20020;-67
2022/07/22 05:07:35;;;;;;;2.47;1.38;;;17.60;80.60;;;;;;5044335;28;20402;-68
2022/07/22 05:10:01;;;;;;;3.22;1.42;;;17.60;80.70;;;;;;5042852;28;20096;-67
2022/07/22 05:12:27;;;;;;;3.55;1.10;;;17.70;80.60;;;;;;5043804;28;20032;-68
2022/07/22 05:14:52;;;;;;;2.92;1.40;;;17.70;80.50;;;;;;5047862;28;20033;-68
2022/07/22 05:17:18;;;;;;;3.47;1.40;;;17.70;80.30;;;;;;5049108;28;20475;-68
2022/07/22 05:19:43;;;;;;;2.42;1.40;;;17.70;80.30;;;;;;5047400;28;20060;-67
2022/07/22 05:22:09;;;;;;;2.47;1.45;;;17.70;80.10;;;;;;5048302;28;20626;-66
2022/07/22 05:24:35;;;;;;;2.08;1.20;;;17.80;80.10;;;;;;5048176;28;20036;-66
2022/07/22 05:27:01;;;;;;;3.22;1.30;;;17.80;79.90;;;;;;5045719;28;20039;-68
2022/07/22 05:29:26;;;;;;;4.90;1.50;;;17.90;79.80;;;;;;5053125;28;20021;-67
2022/07/22 05:31:52;;;;;;;5.57;1.50;;;17.80;79.80;;;;;;5051491;28;20114;-67
2022/07/22 05:34:17;;;;;;;2.88;1.40;;;17.80;79.90;;;;;;5051898;28;20475;-67
2022/07/22 05:36:43;;;;;;;2.10;1.20;;;17.90;79.80;;;;;;5052350;28;20033;-68
2022/07/22 05:39:08;;;;;;;2.03;1.00;;;18.00;79.60;;;;;;5053418;28;20053;-67
2022/07/22 05:41:34;;;;;;;2.08;1.15;;;18.00;79.30;;;;;;5046117;28;20082;-67
2022/07/22 05:43:59;;;;;;;1.58;1.10;;;18.00;79.60;;;;;;5050140;28;20028;-67
2022/07/22 05:46:25;;;;;;;3.53;1.30;;;18.00;79.20;;;;;;5047538;28;20402;-67
2022/07/22 05:48:50;;;;;;;2.10;1.23;;;18.10;79.20;;;;;;5044990;28;20495;-67
2022/07/22 05:51:16;;;;;;;2.92;1.17;;;18.10;79.20;;;;;;5047861;28;20032;-67
2022/07/22 05:53:42;;;;;;;3.90;1.27;;;18.10;79.10;;;;;;5043880;28;20028;-67
2022/07/22 05:56:10;;;;;;;1.90;1.23;;;18.20;78.90;;;;;;5046964;28;20017;-67
2022/07/22 05:58:37;;;;;;;3.95;1.50;;;18.20;78.90;;;;;;5045228;28;20052;-67
2022/07/22 06:01:02;;;;;;;2.33;1.58;;;18.20;78.70;;;;;;5048121;28;20025;-67
2022/07/22 06:03:28;;;;;;;2.65;1.20;;;18.30;78.60;;;;;;5038902;28;20120;-66
2022/07/22 06:05:53;;;;;;;3.85;1.30;;;18.30;78.50;;;;;;5045973;28;20036;-67
2022/07/22 06:08:19;;;;;;;3.05;1.00;;;18.40;78.50;;;;;;5049776;28;20078;-67
2022/07/22 06:10:44;;;;;;;3.38;1.17;;;18.40;78.50;;;;;;5048972;28;20029;-67
2022/07/22 06:13:10;;;;;;;2.38;1.08;;;18.50;78.40;;;;;;5048806;28;20092;-68
2022/07/22 06:15:36;;;;;;;4.90;1.20;;;18.60;78.20;;;;;;5052611;28;20029;-66
2022/07/22 06:18:01;;;;;;;1.70;1.00;;;18.60;78.20;;;;;;5045163;28;20151;-66
2022/07/22 06:20:27;;;;;;;2.58;1.00;;;18.60;78.00;;;;;;5050907;28;20494;-67
2022/07/22 06:22:52;;;;;;;2.95;1.02;;;18.60;78.00;;;;;;5050992;28;20021;-66
2022/07/22 06:25:18;;;;;;;3.03;1.20;;;18.70;77.90;;;;;;5048939;28;20032;-67
2022/07/22 06:27:43;;;;;;;2.35;1.20;;;18.70;77.80;;;;;;5048423;28;20103;-67
2022/07/22 06:30:09;;;;;;;1.80;1.00;;;18.80;77.70;;;;;;5043689;28;20113;-67
2022/07/22 06:32:35;;;;;;;6.40;1.42;;;18.80;77.40;;;;;;5040420;28;20037;-68
2022/07/22 06:35:01;;;;;;;3.05;1.25;;;18.80;77.10;;;;;;5050091;28;20029;-67
2022/07/22 06:37:27;;;;;;;2.78;1.13;;;18.80;77.10;;;;;;5051117;28;20017;-67
2022/07/22 06:39:52;;;;;;;5.72;1.17;;;18.80;77.00;;;;;;5040063;28;20025;-67
2022/07/22 06:42:18;;;;;;;4.57;1.10;;;18.80;76.90;;;;;;5051550;28;20079;-67
2022/07/22 06:44:43;;;;;;;3.45;1.15;;;18.80;76.90;;;;;;5048943;28;20040;-66
2022/07/22 06:47:09;;;;;;;2.00;0.82;;;18.80;76.70;;;;;;5039440;28;20053;-67
2022/07/22 06:49:35;;;;;;;1.98;1.20;;;18.90;76.60;;;;;;5041767;28;20440;-65
2022/07/22 06:52:01;;;;;;;2.38;1.20;;;18.90;76.50;;;;;;5043778;28;20108;-66
2022/07/22 06:54:27;;;;;;;2.85;1.25;;;18.90;76.60;;;;;;5039186;28;20104;-67
2022/07/22 06:56:53;;;;;;;1.60;1.08;;;18.90;76.50;;;;;;5047411;28;20596;-67
2022/07/22 06:59:18;;;;;;;1.48;1.10;;;18.90;76.40;;;;;;5038853;28;20021;-66
2022/07/22 07:01:44;;;;;;;2.38;1.30;;;19.00;77.10;;;;;;5042613;28;20491;-68
2022/07/22 07:04:09;;;;;;;1.33;0.93;;;19.00;76.30;;;;;;5037802;28;20029;-68
2022/07/22 07:06:35;;;;;;;2.65;0.93;;;19.10;76.20;;;;;;5041758;28;20064;-69
2022/07/22 07:09:00;;;;;;;1.50;1.00;;;19.10;76.10;;;;;;5044477;28;20037;-67
2022/07/22 07:11:26;;;;;;;2.03;1.00;;;19.20;76.10;;;;;;5042212;28;20463;-66
2022/07/22 07:13:52;;;;;;;2.15;0.98;;;19.20;75.90;;;;;;5040047;28;20053;-66
2022/07/22 07:16:17;;;;;;;3.55;1.30;;;19.20;75.60;;;;;;5046251;28;20028;-66
2022/07/22 07:18:43;;;;;;;2.30;1.25;;;19.30;75.50;;;;;;5046889;28;20021;-67
2022/07/22 07:21:08;;;;;;;2.33;1.00;;;19.30;75.20;;;;;;5034574;28;20500;-68
2022/07/22 07:23:34;;;;;;;1.70;1.02;;;19.40;75.20;;;;;;5041159;28;20021;-67
2022/07/22 07:25:59;;;;;;;1.85;1.10;;;19.50;75.10;;;;;;5043744;28;20025;-67
2022/07/22 07:28:25;;;;;;;2.28;1.10;;;19.60;75.10;;;;;;5044430;28;20021;-67
2022/07/22 07:30:50;;;;;;;2.95;1.30;;;19.60;75.00;;;;;;5046651;28;20062;-67
2022/07/22 07:33:16;;;;;;;1.67;1.00;;;19.60;75.00;;;;;;5045772;28;20435;-67
2022/07/22 07:35:41;;;;;;;2.38;1.05;;;19.60;75.00;;;;;;5048089;28;20029;-67
2022/07/22 07:38:07;;;;;;;1.40;1.20;;;19.70;74.80;;;;;;5045280;28;20043;-68
2022/07/22 07:40:33;;;;;;;3.67;1.10;;;19.60;74.50;;;;;;5039553;28;20414;-68
2022/07/22 07:42:58;;;;;;;4.55;1.95;;;19.50;74.80;;;;;;5046517;28;20033;-68
2022/07/22 07:45:24;;;;;;;3.28;1.20;;;19.50;74.90;;;;;;5044744;28;20033;-66
2022/07/22 07:47:49;;;;;;;3.00;1.38;;;19.50;75.00;;;;;;5039334;28;20033;-67
2022/07/22 07:50:15;;;;;;;3.15;1.30;;;19.50;75.10;;;;;;5043649;28;20065;-67
2022/07/22 07:52:43;;;;;;;3.75;1.40;;;19.50;75.10;;;;;;5036441;28;20028;-68
2022/07/22 07:55:09;;;;;;;2.45;1.10;;;19.50;74.70;;;;;;5045887;28;20086;-68
2022/07/22 07:57:35;;;;;;;2.72;1.20;;;19.40;74.60;;;;;;5046806;28;20438;-68
2022/07/22 08:00:01;;;;;;;2.22;1.15;;;19.40;74.60;;;;;;5048504;28;20125;-67
2022/07/22 08:02:27;;;;;;;4.07;1.20;;;19.50;74.50;;;;;;5041637;28;20551;-67
2022/07/22 08:04:53;;;;;;;3.50;1.30;;;19.50;74.10;;;;;;5049159;28;20111;-68
2022/07/22 08:07:18;;;;;;;4.15;1.30;;;19.60;74.00;;;;;;5045761;28;20112;-68
2022/07/22 08:09:44;;;;;;;3.08;1.30;;;19.60;73.60;;;;;;5048241;28;20048;-68
2022/07/22 08:12:09;;;;;;;3.78;1.02;;;19.60;73.40;;;;;;5048270;28;20646;-68
2022/07/22 08:14:35;;;;;;;2.08;1.00;;;19.60;73.50;;;;;;5036117;28;20032;-68
2022/07/22 08:17:01;;;;;;;2.75;1.20;;;19.70;73.30;;;;;;5040575;28;20071;-67
2022/07/22 08:19:27;;;;;;;3.25;1.50;;;19.60;73.40;;;;;;5038819;28;20132;-67
2022/07/22 08:21:52;;;;;;;4.68;1.38;;;19.60;73.20;;;;;;5041828;28;20081;-67
2022/07/22 08:24:18;;;;;;;3.58;1.27;;;19.70;73.40;;;;;;5047705;28;20029;-67
2022/07/22 08:26:43;;;;;;;2.22;1.25;;;19.70;73.40;;;;;;5037857;28;20181;-67
2022/07/22 08:29:09;;;;;;;2.33;1.20;;;19.80;73.40;;;;;;5039144;28;20025;-67
2022/07/22 08:31:36;;;;;;;2.17;1.25;;;19.90;73.40;;;;;;5045781;28;20017;-67
2022/07/22 08:34:04;;;;;;;1.90;1.17;;;20.00;73.00;;;;;;5039772;28;20107;-67
2022/07/22 08:36:29;;;;;;;1.80;1.20;;;20.10;72.70;;;;;;5046795;28;20021;-66
2022/07/22 08:38:55;;;;;;;3.00;1.13;;;20.30;72.50;;;;;;5044934;28;20118;-68
2022/07/22 08:41:23;;;;;;;2.63;1.20;;;20.40;72.20;;;;;;5047050;28;20162;-68
2022/07/22 08:43:49;;;;;;;6.50;1.80;;;20.40;71.90;;;;;;5044560;28;20024;-68
2022/07/22 08:46:16;;;;;;;2.10;1.15;;;20.30;71.30;;;;;;5043578;28;20029;-68
2022/07/22 08:48:42;;;;;;;5.97;1.83;;;20.40;71.40;;;;;;5040346;28;20033;-68
2022/07/22 08:51:08;;;;;;;2.05;1.40;;;20.50;70.80;;;;;;5045319;28;20033;-68
2022/07/22 08:53:33;;;;;;;3.13;1.50;;;20.60;70.90;;;;;;5047892;28;20043;-68
2022/07/22 08:55:59;;;;;;;3.97;1.50;;;20.70;70.80;;;;;;5039207;28;20102;-68
2022/07/22 08:58:26;;;;;;;3.53;1.30;;;20.60;70.20;;;;;;5041299;28;20071;-68
2022/07/22 09:01:15;;;;;;;2.53;1.38;;;20.50;70.10;;;;;;5041972;28;20068;-68
2022/07/22 09:03:49;;;;;;;2.75;1.17;;;20.60;70.30;;;;;;5047744;28;20553;-68
2022/07/22 09:06:16;;;;;;;3.05;1.40;;;20.60;70.00;;;;;;5051300;28;20044;-68
2022/07/22 09:09:02;;;;;;;2.75;1.30;;;20.60;69.20;;;;;;5043644;28;20025;-66
2022/07/22 09:11:29;;;;;;;2.20;1.10;;;20.50;69.70;;;;;;5043679;28;20029;-66
2022/07/22 09:14:00;;;;;;;3.03;1.27;;;20.60;69.60;;;;;;5044671;28;20026;-67
2022/07/22 09:16:42;;;;;;;3.15;1.27;;;20.60;69.20;;;;;;5044614;28;20027;-67
2022/07/22 09:19:08;;;;;;;1.67;1.00;;;20.50;68.70;;;;;;5047058;28;20033;-68
2022/07/22 09:21:39;;;;;;;3.00;1.02;;;20.60;68.60;;;;;;5043711;28;20039;-68
2022/07/22 09:24:05;;;;;;;1.93;1.20;;;20.70;68.30;;;;;;5040793;28;20051;-66
2022/07/22 09:26:37;;;;;;;2.38;1.05;;;20.90;67.90;;;;;;5044679;28;20155;-67
2022/07/22 09:29:04;;;;;;;2.72;1.30;;;20.90;67.50;;;;;;5040638;28;20645;-66
2022/07/22 09:31:35;;;;;;;1.90;1.08;;;20.90;67.00;;;;;;5043037;28;20037;-67
2022/07/22 09:34:01;;;;;;;3.25;1.00;;;21.00;67.00;;;;;;5044959;28;20024;-67
2022/07/22 09:36:27;;;;;;;2.85;1.35;;;21.10;66.70;;;;;;5045775;28;20025;-68
2022/07/22 09:38:53;;;;;;;3.75;1.13;;;21.20;66.20;;;;;;5045428;28;20037;-66
2022/07/22 09:41:19;;;;;;;1.73;1.17;;;21.30;65.80;;;;;;5043226;28;20025;-66
2022/07/22 09:43:47;;;;;;;1.98;1.10;;;21.40;65.30;;;;;;5044734;28;20021;-68
2022/07/22 09:46:12;;;;;;;3.17;1.23;;;21.40;63.80;;;;;;5043751;28;20108;-66
2022/07/22 09:48:39;;;;;;;2.50;1.10;;;21.20;63.80;;;;;;5043586;28;20114;-67
2022/07/22 09:51:05;;;;;;;1.27;0.80;;;21.20;63.50;;;;;;5044372;28;20053;-67
2022/07/22 09:53:32;;;;;;;1.27;0.82;;;21.20;63.80;;;;;;5043387;28;20045;-67
2022/07/22 09:55:59;;;;;;;2.42;0.80;;;21.40;63.30;;;;;;5044441;28;20021;-67
2022/07/22 09:58:25;;;;;;;1.52;0.95;;;21.50;62.80;;;;;;5042164;28;20112;-67
2022/07/22 10:00:52;;;;;;;2.35;1.10;;;21.60;62.60;;;;;;5042150;28;20078;-67
2022/07/22 10:03:21;;;;;;;1.98;0.90;;;21.80;62.10;;;;;;5043911;28;20033;-69
2022/07/22 10:05:47;;;;;;;2.92;1.10;;;21.80;62.00;;;;;;5045135;28;20052;-66
2022/07/22 10:08:12;;;;;;;0.90;0.80;;;21.90;61.80;;;;;;5044690;28;20032;-67
2022/07/22 10:10:39;;;;;;;4.20;1.05;;;21.90;61.50;;;;;;5045867;28;20028;-67
2022/07/22 10:13:06;;;;;;;1.83;1.05;;;21.90;61.30;;;;;;5042254;28;20028;-68
2022/07/22 10:15:33;;;;;;;1.98;1.08;;;21.90;61.10;;;;;;5044622;28;20045;-68
2022/07/22 10:18:03;;;;;;;2.05;0.80;;;22.00;61.10;;;;;;5043628;28;20017;-68
2022/07/22 10:20:31;;;;;;;3.42;1.05;;;22.10;61.00;;;;;;5045350;28;20075;-68
2022/07/22 10:23:08;;;;;;;1.60;0.90;;;22.10;60.30;;;;;;5042920;28;20071;-66
2022/07/22 10:25:53;;;;;;;0.98;0.80;;;22.10;59.70;;;;;;5043807;28;20025;-67
2022/07/22 10:28:28;;;;;;;2.05;0.80;;;22.30;60.30;;;;;;5045288;28;20152;-66
2022/07/22 10:31:14;;;;;;;2.03;0.90;;;22.40;60.10;;;;;;5046883;28;20025;-66
2022/07/22 10:33:40;;;;;;;2.38;1.10;;;22.50;59.70;;;;;;5041413;28;20403;-67
2022/07/22 10:36:08;;;;;;;3.47;1.50;;;22.60;59.60;;;;;;5040865;28;20017;-67
2022/07/22 10:38:33;;;;;;;3.33;0.95;;;22.70;59.60;;;;;;5044996;28;20502;-66
2022/07/22 10:41:00;;;;;;;0.95;0.70;;;22.80;59.20;;;;;;5044158;28;20021;-66
2022/07/22 10:43:28;;;;;;;2.13;0.90;;;22.90;59.00;;;;;;5044286;28;20025;-66
2022/07/22 10:45:58;;;;;;;3.30;1.70;;;22.80;58.40;;;;;;5043932;28;20033;-66
2022/07/22 10:48:46;;;;;;;2.47;1.48;;;22.90;57.50;;;;;;5038223;28;20032;-67
2022/07/22 10:51:20;;;;;;;1.38;1.00;;;22.80;57.60;;;;;;5039499;28;20051;-66
2022/07/22 10:53:55;;;;;;;1.70;0.90;;;22.90;57.90;;;;;;5046732;28;20387;-66
2022/07/22 10:56:25;;;;;;;1.02;0.77;;;23.00;57.70;;;;;;5040951;28;20041;-67
2022/07/22 10:58:51;;;;;;;2.05;0.90;;;23.00;57.80;;;;;;5042251;28;20025;-66
2022/07/22 11:01:19;;;;;;;2.13;0.80;;;23.20;57.80;;;;;;5044219;28;20064;-67
2022/07/22 11:03:47;;;;;;;1.80;0.82;;;23.30;57.60;;;;;;5042940;28;20074;-66
2022/07/22 11:06:24;;;;;;;1.00;0.90;;;23.40;57.60;;;;;;5040421;28;20021;-67
2022/07/22 11:08:53;;;;;;;2.03;0.80;;;23.40;57.10;;;;;;5041105;28;20021;-67
2022/07/22 11:11:31;;;;;;;1.73;0.90;;;23.50;56.60;;;;;;5043683;28;20361;-69
2022/07/22 11:13:56;;;;;;;3.00;1.05;;;23.60;56.50;;;;;;5050038;28;20017;-67
2022/07/22 11:16:24;;;;;;;1.80;0.93;;;23.70;56.10;;;;;;5040141;28;20037;-67
2022/07/22 11:18:55;;;;;;;1.60;0.80;;;23.80;56.00;;;;;;5046217;28;20017;-65
2022/07/22 11:21:23;;;;;;;1.77;1.00;;;23.90;55.70;;;;;;5041679;28;20044;-66
2022/07/22 11:23:50;;;;;;;1.08;0.90;;;24.00;55.20;;;;;;5042340;28;20115;-66
2022/07/22 11:26:19;;;;;;;4.45;1.00;;;24.00;55.10;;;;;;5041510;28;20024;-66
2022/07/22 11:28:46;;;;;;;1.70;1.20;;;24.00;55.10;;;;;;5041690;28;20786;-66
2022/07/22 11:31:16;;;;;;;1.42;1.15;;;23.90;54.60;;;;;;5037773;28;20068;-67
2022/07/22 11:33:43;;;;;;;1.42;0.90;;;23.90;54.90;;;;;;5038181;28;20176;-67
2022/07/22 11:36:12;;;;;;;2.60;0.90;;;24.00;55.00;;;;;;5043504;28;20032;-65
2022/07/22 11:38:46;;;;;;;1.40;0.80;;;24.00;54.70;;;;;;5042433;28;20025;-67
2022/07/22 11:41:13;;;;;;;1.60;1.00;;;24.00;54.60;;;;;;5037772;28;20480;-67
2022/07/22 11:43:43;;;;;;;2.30;1.00;;;23.70;53.80;;;;;;5043561;28;20100;-68
2022/07/22 11:46:17;;;;;;;2.30;1.20;;;23.50;54.50;;;;;;5073048;27;20360;-66
2022/07/22 11:48:44;;;;;;;2.55;0.82;;;23.30;54.40;;;;;;5073122;28;20025;-66
2022/07/22 11:51:11;;;;;;;1.35;0.90;;;23.40;54.90;;;;;;5072376;28;20031;-66
2022/07/22 11:53:38;;;;;;;1.27;0.68;;;23.50;54.90;;;;;;5073760;28;20028;-66
2022/07/22 11:56:05;;;;;;;1.52;0.70;;;23.70;55.00;;;;;;5076053;28;20024;-66
2022/07/22 11:58:45;;;;;;;1.52;0.90;;;23.90;55.00;;;;;;5076439;28;20499;-67
2022/07/22 12:01:17;;;;;;;1.52;0.90;;;23.90;54.30;;;;;;5066262;28;20043;-66
2022/07/22 12:03:52;;;;;;;1.20;0.70;;;24.00;53.90;;;;;;5069182;28;20108;-66
2022/07/22 12:06:19;;;;;;;1.40;0.82;;;24.00;54.30;;;;;;5062691;28;20479;-66
2022/07/22 12:08:49;;;;;;;1.58;0.90;;;24.10;54.50;;;;;;5078638;28;20016;-65
2022/07/22 12:11:16;;;;;;;2.95;0.77;;;24.10;54.40;;;;;;5056269;28;20121;-66
2022/07/22 12:13:44;;;;;;;1.23;0.90;;;24.10;54.50;;;;;;5073741;28;20552;-65
2022/07/22 12:16:37;;;;;;;1.00;0.85;;;24.10;54.10;;;;;;5059678;28;20025;-66
2022/07/22 12:19:08;;;;;;;2.65;1.20;;;24.00;54.30;;;;;;5058327;28;20056;-66
2022/07/22 12:21:35;;;;;;;;;;;24.00;54.30;;;;;;5065511;28;20033;-66
2022/07/22 12:24:07;;;;;;;1.13;0.80;;;24.00;54.60;;;;;;5070763;28;19948;-66
2022/07/22 12:26:48;;;;;;;2.13;1.05;;;24.10;54.30;;;;;;5064475;28;20391;-66
2022/07/22 12:29:18;;;;;;;2.80;1.10;;;24.00;53.30;;;;;;5059855;28;20025;-66
2022/07/22 12:32:00;;;;;;;1.52;1.00;;;24.10;53.50;;;;;;5058015;28;20025;-69
2022/07/22 12:34:39;;;;;;;2.47;1.05;;;24.30;53.40;;;;;;5060270;28;20096;-66
2022/07/22 12:37:15;;;;;;;1.30;0.90;;;24.30;52.50;;;;;;5053176;28;20075;-66
2022/07/22 12:39:56;;;;;;;2.67;1.08;;;24.50;53.10;;;;;;5053945;28;20086;-65
2022/07/22 12:42:23;;;;;;;1.33;0.95;;;24.80;52.00;;;;;;5058043;28;20032;-66
2022/07/22 12:45:08;;;;;;;1.50;1.02;;;25.00;52.10;;;;;;5071666;28;20073;-66
2022/07/22 12:47:50;;;;;;;2.33;0.90;;;25.20;51.80;;;;;;5071320;28;20051;-66